sensor_id;sensor_type;location;lat;lon;timestamp;P1;durP1;ratioP1;P2;durP2;ratioP2
16502;SDS011;53067;48.114;11.694;2022-12-15T00:01:43;21.50;;;16.10;;
16502;SDS011;53067;48.114;11.694;2022-12-15T00:04:29;21.70;;;16.50;;
16502;SDS011;53067;48.114;11.694;2022-12-15T00:07:14;24.10;;;17.70;;
16502;SDS011;53067;48.114;11.694;2022-12-15T00:09:59;24.73;;;17.80;;
16502;SDS011;53067;48.114;11.694;2022-12-15T00:12:45;24.57;;;16.90;;
16502;SDS011;53067;48.114;11.694;2022-12-15T00:15:31;24.40;;;16.90;;
16502;SDS011;53067;48.114;11.694;2022-12-15T00:18:16;23.83;;;17.37;;
16502;SDS011;53067;48.114;11.694;2022-12-15T00:21:02;25.20;;;17.20;;
16502;SDS011;53067;48.114;11.694;2022-12-15T00:23:47;24.40;;;16.63;;
16502;SDS011;53067;48.114;11.694;2022-12-15T00:26:33;27.07;;;18.40;;
16502;SDS011;53067;48.114;11.694;2022-12-15T00:29:18;24.73;;;17.97;;
16502;SDS011;53067;48.114;11.694;2022-12-15T00:32:04;26.93;;;17.70;;
16502;SDS011;53067;48.114;11.694;2022-12-15T00:34:49;24.33;;;16.03;;
16502;SDS011;53067;48.114;11.694;2022-12-15T00:37:35;23.60;;;17.13;;
16502;SDS011;53067;48.114;11.694;2022-12-15T00:40:20;26.83;;;17.40;;
16502;SDS011;53067;48.114;11.694;2022-12-15T00:42:47;25.93;;;18.60;;
16502;SDS011;53067;48.114;11.694;2022-12-15T00:45:15;25.23;;;17.60;;
16502;SDS011;53067;48.114;11.694;2022-12-15T00:47:42;23.53;;;16.63;;
16502;SDS011;53067;48.114;11.694;2022-12-15T00:50:10;23.97;;;16.63;;
16502;SDS011;53067;48.114;11.694;2022-12-15T00:52:55;26.37;;;17.47;;
16502;SDS011;53067;48.114;11.694;2022-12-15T00:55:41;24.90;;;17.97;;
16502;SDS011;53067;48.114;11.694;2022-12-15T00:58:26;29.03;;;18.63;;
16502;SDS011;53067;48.114;11.694;2022-12-15T01:01:12;25.17;;;18.03;;
16502;SDS011;53067;48.114;11.694;2022-12-15T01:03:57;25.23;;;16.63;;
16502;SDS011;53067;48.114;11.694;2022-12-15T01:06:43;26.90;;;17.80;;
16502;SDS011;53067;48.114;11.694;2022-12-15T01:09:28;23.47;;;17.83;;
16502;SDS011;53067;48.114;11.694;2022-12-15T01:12:14;24.07;;;17.37;;
16502;SDS011;53067;48.114;11.694;2022-12-15T01:14:59;25.47;;;17.83;;
16502;SDS011;53067;48.114;11.694;2022-12-15T01:17:44;25.83;;;18.00;;
16502;SDS011;53067;48.114;11.694;2022-12-15T01:20:30;23.33;;;16.97;;
16502;SDS011;53067;48.114;11.694;2022-12-15T01:22:59;27.97;;;19.10;;
16502;SDS011;53067;48.114;11.694;2022-12-15T01:25:26;25.93;;;17.77;;
16502;SDS011;53067;48.114;11.694;2022-12-15T01:27:54;22.80;;;16.90;;
16502;SDS011;53067;48.114;11.694;2022-12-15T01:30:23;24.80;;;17.70;;
16502;SDS011;53067;48.114;11.694;2022-12-15T01:32:52;25.27;;;18.33;;
16502;SDS011;53067;48.114;11.694;2022-12-15T01:35:19;24.73;;;16.80;;
16502;SDS011;53067;48.114;11.694;2022-12-15T01:37:49;28.23;;;18.73;;
16502;SDS011;53067;48.114;11.694;2022-12-15T01:40:17;28.47;;;18.17;;
16502;SDS011;53067;48.114;11.694;2022-12-15T01:43:08;29.23;;;19.23;;
16502;SDS011;53067;48.114;11.694;2022-12-15T01:46:21;25.63;;;18.27;;
16502;SDS011;53067;48.114;11.694;2022-12-15T01:48:16;25.50;;;18.07;;
16502;SDS011;53067;48.114;11.694;2022-12-15T01:50:46;23.43;;;16.73;;
16502;SDS011;53067;48.114;11.694;2022-12-15T01:53:15;27.67;;;18.43;;
16502;SDS011;53067;48.114;11.694;2022-12-15T01:55:43;24.07;;;16.63;;
16502;SDS011;53067;48.114;11.694;2022-12-15T01:58:13;25.90;;;17.47;;
16502;SDS011;53067;48.114;11.694;2022-12-15T02:00:43;23.47;;;16.47;;
16502;SDS011;53067;48.114;11.694;2022-12-15T02:03:11;24.67;;;16.87;;
16502;SDS011;53067;48.114;11.694;2022-12-15T02:05:39;22.40;;;16.47;;
16502;SDS011;53067;48.114;11.694;2022-12-15T02:08:07;25.97;;;18.17;;
16502;SDS011;53067;48.114;11.694;2022-12-15T02:13:42;24.37;;;16.23;;
16502;SDS011;53067;48.114;11.694;2022-12-15T02:16:35;22.97;;;15.67;;
16502;SDS011;53067;48.114;11.694;2022-12-15T02:19:08;25.47;;;17.83;;
16502;SDS011;53067;48.114;11.694;2022-12-15T02:21:34;22.07;;;16.07;;
16502;SDS011;53067;48.114;11.694;2022-12-15T02:30:15;22.10;;;16.53;;
16502;SDS011;53067;48.114;11.694;2022-12-15T02:38:07;25.27;;;17.13;;
16502;SDS011;53067;48.114;11.694;2022-12-15T02:40:35;22.50;;;15.50;;
16502;SDS011;53067;48.114;11.694;2022-12-15T02:43:03;22.80;;;16.03;;
16502;SDS011;53067;48.114;11.694;2022-12-15T02:45:40;19.70;;;14.87;;
16502;SDS011;53067;48.114;11.694;2022-12-15T02:48:10;20.77;;;15.07;;
16502;SDS011;53067;48.114;11.694;2022-12-15T02:51:18;21.27;;;15.30;;
16502;SDS011;53067;48.114;11.694;2022-12-15T02:56:36;20.17;;;15.10;;
16502;SDS011;53067;48.114;11.694;2022-12-15T02:59:24;20.33;;;14.53;;
16502;SDS011;53067;48.114;11.694;2022-12-15T03:02:00;21.00;;;14.30;;
16502;SDS011;53067;48.114;11.694;2022-12-15T03:04:31;22.20;;;15.07;;
16502;SDS011;53067;48.114;11.694;2022-12-15T03:07:00;21.20;;;14.53;;
16502;SDS011;53067;48.114;11.694;2022-12-15T03:09:30;20.93;;;15.47;;
16502;SDS011;53067;48.114;11.694;2022-12-15T03:11:59;22.33;;;15.80;;
16502;SDS011;53067;48.114;11.694;2022-12-15T03:14:26;18.30;;;14.30;;
16502;SDS011;53067;48.114;11.694;2022-12-15T03:16:54;21.10;;;15.27;;
16502;SDS011;53067;48.114;11.694;2022-12-15T03:19:22;23.30;;;15.73;;
16502;SDS011;53067;48.114;11.694;2022-12-15T03:21:51;22.17;;;15.67;;
16502;SDS011;53067;48.114;11.694;2022-12-15T03:24:18;23.20;;;15.20;;
16502;SDS011;53067;48.114;11.694;2022-12-15T03:26:46;19.60;;;14.97;;
16502;SDS011;53067;48.114;11.694;2022-12-15T03:29:15;22.27;;;16.17;;
16502;SDS011;53067;48.114;11.694;2022-12-15T03:31:43;23.20;;;15.70;;
16502;SDS011;53067;48.114;11.694;2022-12-15T03:34:11;25.33;;;17.10;;
16502;SDS011;53067;48.114;11.694;2022-12-15T03:36:39;25.27;;;16.73;;
16502;SDS011;53067;48.114;11.694;2022-12-15T03:39:06;22.97;;;15.73;;
16502;SDS011;53067;48.114;11.694;2022-12-15T03:41:34;24.47;;;16.43;;
16502;SDS011;53067;48.114;11.694;2022-12-15T03:44:01;25.87;;;17.53;;
16502;SDS011;53067;48.114;11.694;2022-12-15T03:46:38;27.60;;;16.07;;
16502;SDS011;53067;48.114;11.694;2022-12-15T03:49:05;22.17;;;15.23;;
16502;SDS011;53067;48.114;11.694;2022-12-15T03:51:33;25.50;;;15.43;;
16502;SDS011;53067;48.114;11.694;2022-12-15T03:54:00;22.23;;;16.03;;
16502;SDS011;53067;48.114;11.694;2022-12-15T03:56:28;25.13;;;17.40;;
16502;SDS011;53067;48.114;11.694;2022-12-15T03:58:55;25.77;;;16.97;;
16502;SDS011;53067;48.114;11.694;2022-12-15T04:01:27;24.03;;;17.27;;
16502;SDS011;53067;48.114;11.694;2022-12-15T04:03:59;25.70;;;18.00;;
16502;SDS011;53067;48.114;11.694;2022-12-15T04:06:28;23.13;;;17.00;;
16502;SDS011;53067;48.114;11.694;2022-12-15T04:08:56;28.43;;;17.87;;
16502;SDS011;53067;48.114;11.694;2022-12-15T04:11:23;28.33;;;17.40;;
16502;SDS011;53067;48.114;11.694;2022-12-15T04:13:51;27.50;;;18.03;;
16502;SDS011;53067;48.114;11.694;2022-12-15T04:16:18;27.07;;;18.27;;
16502;SDS011;53067;48.114;11.694;2022-12-15T04:18:46;27.60;;;18.33;;
16502;SDS011;53067;48.114;11.694;2022-12-15T04:21:17;26.07;;;17.67;;
16502;SDS011;53067;48.114;11.694;2022-12-15T04:23:44;27.83;;;19.33;;
16502;SDS011;53067;48.114;11.694;2022-12-15T04:26:30;30.43;;;19.47;;
16502;SDS011;53067;48.114;11.694;2022-12-15T04:29:15;29.93;;;19.30;;
16502;SDS011;53067;48.114;11.694;2022-12-15T04:32:01;28.00;;;19.57;;
16502;SDS011;53067;48.114;11.694;2022-12-15T04:34:46;27.97;;;17.83;;
16502;SDS011;53067;48.114;11.694;2022-12-15T04:37:31;28.03;;;18.73;;
16502;SDS011;53067;48.114;11.694;2022-12-15T04:40:17;26.57;;;17.03;;
16502;SDS011;53067;48.114;11.694;2022-12-15T04:43:03;28.13;;;18.43;;
16502;SDS011;53067;48.114;11.694;2022-12-15T04:45:48;25.40;;;17.50;;
16502;SDS011;53067;48.114;11.694;2022-12-15T04:48:34;27.53;;;18.27;;
16502;SDS011;53067;48.114;11.694;2022-12-15T04:51:19;25.03;;;17.97;;
16502;SDS011;53067;48.114;11.694;2022-12-15T04:54:05;29.73;;;20.10;;
16502;SDS011;53067;48.114;11.694;2022-12-15T04:56:50;27.53;;;18.63;;
16502;SDS011;53067;48.114;11.694;2022-12-15T04:59:35;29.43;;;19.37;;
16502;SDS011;53067;48.114;11.694;2022-12-15T05:02:21;32.33;;;20.43;;
16502;SDS011;53067;48.114;11.694;2022-12-15T05:05:07;31.73;;;20.17;;
16502;SDS011;53067;48.114;11.694;2022-12-15T05:07:56;28.67;;;20.30;;
16502;SDS011;53067;48.114;11.694;2022-12-15T05:10:41;29.00;;;19.23;;
16502;SDS011;53067;48.114;11.694;2022-12-15T05:13:26;25.17;;;17.30;;
16502;SDS011;53067;48.114;11.694;2022-12-15T05:16:12;31.90;;;20.63;;
16502;SDS011;53067;48.114;11.694;2022-12-15T05:18:57;28.73;;;19.23;;
16502;SDS011;53067;48.114;11.694;2022-12-15T05:21:43;30.87;;;18.90;;
16502;SDS011;53067;48.114;11.694;2022-12-15T05:24:28;29.33;;;19.17;;
16502;SDS011;53067;48.114;11.694;2022-12-15T05:27:13;28.83;;;19.23;;
16502;SDS011;53067;48.114;11.694;2022-12-15T05:29:59;25.53;;;18.27;;
16502;SDS011;53067;48.114;11.694;2022-12-15T05:32:44;26.70;;;18.23;;
16502;SDS011;53067;48.114;11.694;2022-12-15T05:35:11;29.53;;;19.87;;
16502;SDS011;53067;48.114;11.694;2022-12-15T05:37:39;28.23;;;18.87;;
16502;SDS011;53067;48.114;11.694;2022-12-15T05:40:07;30.53;;;19.33;;
16502;SDS011;53067;48.114;11.694;2022-12-15T05:42:35;28.43;;;19.30;;
16502;SDS011;53067;48.114;11.694;2022-12-15T05:45:03;28.60;;;20.23;;
16502;SDS011;53067;48.114;11.694;2022-12-15T05:47:31;29.43;;;19.40;;
16502;SDS011;53067;48.114;11.694;2022-12-15T05:49:58;30.47;;;20.87;;
16502;SDS011;53067;48.114;11.694;2022-12-15T05:52:26;27.93;;;20.30;;
16502;SDS011;53067;48.114;11.694;2022-12-15T05:57:40;29.30;;;19.17;;
16502;SDS011;53067;48.114;11.694;2022-12-15T06:00:08;30.83;;;19.73;;
16502;SDS011;53067;48.114;11.694;2022-12-15T06:02:36;30.60;;;19.90;;
16502;SDS011;53067;48.114;11.694;2022-12-15T06:05:03;30.23;;;19.13;;
16502;SDS011;53067;48.114;11.694;2022-12-15T06:07:33;35.33;;;20.47;;
16502;SDS011;53067;48.114;11.694;2022-12-15T06:10:03;29.87;;;19.80;;
16502;SDS011;53067;48.114;11.694;2022-12-15T06:12:31;28.93;;;20.30;;
16502;SDS011;53067;48.114;11.694;2022-12-15T06:14:59;28.67;;;18.60;;
16502;SDS011;53067;48.114;11.694;2022-12-15T06:17:26;28.30;;;18.80;;
16502;SDS011;53067;48.114;11.694;2022-12-15T06:19:54;28.07;;;19.80;;
16502;SDS011;53067;48.114;11.694;2022-12-15T06:22:21;30.20;;;19.70;;
16502;SDS011;53067;48.114;11.694;2022-12-15T06:24:48;31.37;;;20.00;;
16502;SDS011;53067;48.114;11.694;2022-12-15T06:27:16;29.70;;;20.10;;
16502;SDS011;53067;48.114;11.694;2022-12-15T06:29:44;31.33;;;20.50;;
16502;SDS011;53067;48.114;11.694;2022-12-15T06:32:12;30.03;;;19.87;;
16502;SDS011;53067;48.114;11.694;2022-12-15T06:34:39;31.03;;;20.00;;
16502;SDS011;53067;48.114;11.694;2022-12-15T06:37:07;30.40;;;20.40;;
16502;SDS011;53067;48.114;11.694;2022-12-15T06:39:34;28.93;;;20.23;;
16502;SDS011;53067;48.114;11.694;2022-12-15T06:42:02;31.87;;;19.53;;
16502;SDS011;53067;48.114;11.694;2022-12-15T06:44:29;30.07;;;19.60;;
16502;SDS011;53067;48.114;11.694;2022-12-15T06:46:57;35.23;;;21.43;;
16502;SDS011;53067;48.114;11.694;2022-12-15T06:49:24;32.60;;;20.67;;
16502;SDS011;53067;48.114;11.694;2022-12-15T06:51:52;30.23;;;20.53;;
16502;SDS011;53067;48.114;11.694;2022-12-15T06:54:19;30.97;;;20.10;;
16502;SDS011;53067;48.114;11.694;2022-12-15T06:56:47;33.13;;;20.37;;
16502;SDS011;53067;48.114;11.694;2022-12-15T06:59:15;29.80;;;18.57;;
16502;SDS011;53067;48.114;11.694;2022-12-15T07:01:42;27.63;;;18.83;;
16502;SDS011;53067;48.114;11.694;2022-12-15T07:04:10;30.60;;;19.57;;
16502;SDS011;53067;48.114;11.694;2022-12-15T07:06:37;28.13;;;19.67;;
16502;SDS011;53067;48.114;11.694;2022-12-15T07:09:09;33.13;;;20.67;;
16502;SDS011;53067;48.114;11.694;2022-12-15T07:11:37;35.47;;;21.03;;
16502;SDS011;53067;48.114;11.694;2022-12-15T07:14:05;32.73;;;20.73;;
16502;SDS011;53067;48.114;11.694;2022-12-15T07:16:32;31.50;;;20.03;;
16502;SDS011;53067;48.114;11.694;2022-12-15T07:19:00;28.53;;;19.37;;
16502;SDS011;53067;48.114;11.694;2022-12-15T07:21:28;30.40;;;19.40;;
16502;SDS011;53067;48.114;11.694;2022-12-15T07:23:55;31.10;;;19.23;;
16502;SDS011;53067;48.114;11.694;2022-12-15T07:26:23;30.03;;;19.83;;
16502;SDS011;53067;48.114;11.694;2022-12-15T07:28:51;31.00;;;18.83;;
16502;SDS011;53067;48.114;11.694;2022-12-15T07:31:19;30.80;;;19.83;;
16502;SDS011;53067;48.114;11.694;2022-12-15T07:33:48;33.67;;;21.37;;
16502;SDS011;53067;48.114;11.694;2022-12-15T07:36:16;31.27;;;20.83;;
16502;SDS011;53067;48.114;11.694;2022-12-15T07:38:44;35.93;;;22.03;;
16502;SDS011;53067;48.114;11.694;2022-12-15T07:41:11;32.23;;;20.43;;
16502;SDS011;53067;48.114;11.694;2022-12-15T07:43:39;31.33;;;20.47;;
16502;SDS011;53067;48.114;11.694;2022-12-15T07:46:07;30.80;;;20.40;;
16502;SDS011;53067;48.114;11.694;2022-12-15T07:48:34;32.17;;;20.13;;
16502;SDS011;53067;48.114;11.694;2022-12-15T07:51:05;36.47;;;22.03;;
16502;SDS011;53067;48.114;11.694;2022-12-15T07:53:33;31.93;;;21.40;;
16502;SDS011;53067;48.114;11.694;2022-12-15T07:56:01;30.70;;;20.50;;
16502;SDS011;53067;48.114;11.694;2022-12-15T07:58:30;34.70;;;22.17;;
16502;SDS011;53067;48.114;11.694;2022-12-15T08:00:59;29.33;;;20.30;;
16502;SDS011;53067;48.114;11.694;2022-12-15T08:03:28;32.70;;;20.50;;
16502;SDS011;53067;48.114;11.694;2022-12-15T08:05:56;32.77;;;21.27;;
16502;SDS011;53067;48.114;11.694;2022-12-15T08:08:23;33.80;;;21.97;;
16502;SDS011;53067;48.114;11.694;2022-12-15T08:10:51;31.17;;;20.93;;
16502;SDS011;53067;48.114;11.694;2022-12-15T08:13:19;31.77;;;20.50;;
16502;SDS011;53067;48.114;11.694;2022-12-15T08:15:47;33.53;;;21.53;;
16502;SDS011;53067;48.114;11.694;2022-12-15T08:18:19;33.50;;;20.90;;
16502;SDS011;53067;48.114;11.694;2022-12-15T08:20:47;35.17;;;20.93;;
16502;SDS011;53067;48.114;11.694;2022-12-15T08:23:14;33.97;;;21.37;;
16502;SDS011;53067;48.114;11.694;2022-12-15T08:25:42;33.87;;;21.27;;
16502;SDS011;53067;48.114;11.694;2022-12-15T08:28:09;34.03;;;21.77;;
16502;SDS011;53067;48.114;11.694;2022-12-15T08:30:37;38.27;;;22.30;;
16502;SDS011;53067;48.114;11.694;2022-12-15T08:33:05;35.90;;;21.57;;
16502;SDS011;53067;48.114;11.694;2022-12-15T08:35:33;32.17;;;21.60;;
16502;SDS011;53067;48.114;11.694;2022-12-15T08:38:00;32.40;;;20.37;;
16502;SDS011;53067;48.114;11.694;2022-12-15T08:40:28;34.07;;;21.57;;
16502;SDS011;53067;48.114;11.694;2022-12-15T08:42:55;34.27;;;22.23;;
16502;SDS011;53067;48.114;11.694;2022-12-15T08:45:23;34.83;;;22.53;;
16502;SDS011;53067;48.114;11.694;2022-12-15T08:47:50;33.17;;;21.60;;
16502;SDS011;53067;48.114;11.694;2022-12-15T08:50:18;32.53;;;20.97;;
16502;SDS011;53067;48.114;11.694;2022-12-15T08:52:45;34.17;;;20.83;;
16502;SDS011;53067;48.114;11.694;2022-12-15T08:55:13;34.43;;;22.60;;
16502;SDS011;53067;48.114;11.694;2022-12-15T08:57:40;33.10;;;21.80;;
16502;SDS011;53067;48.114;11.694;2022-12-15T09:00:08;33.03;;;21.27;;
16502;SDS011;53067;48.114;11.694;2022-12-15T09:02:36;36.27;;;21.83;;
16502;SDS011;53067;48.114;11.694;2022-12-15T09:05:04;32.37;;;22.23;;
16502;SDS011;53067;48.114;11.694;2022-12-15T09:07:32;35.37;;;22.80;;
16502;SDS011;53067;48.114;11.694;2022-12-15T09:09:59;37.57;;;24.17;;
16502;SDS011;53067;48.114;11.694;2022-12-15T09:12:27;35.77;;;25.40;;
16502;SDS011;53067;48.114;11.694;2022-12-15T09:14:54;37.40;;;24.83;;
16502;SDS011;53067;48.114;11.694;2022-12-15T09:17:22;32.50;;;22.43;;
16502;SDS011;53067;48.114;11.694;2022-12-15T09:19:49;34.53;;;21.73;;
16502;SDS011;53067;48.114;11.694;2022-12-15T09:22:17;33.60;;;22.37;;
16502;SDS011;53067;48.114;11.694;2022-12-15T09:24:45;31.90;;;21.23;;
16502;SDS011;53067;48.114;11.694;2022-12-15T09:27:15;33.90;;;21.37;;
16502;SDS011;53067;48.114;11.694;2022-12-15T09:29:42;35.50;;;22.43;;
16502;SDS011;53067;48.114;11.694;2022-12-15T09:32:10;34.77;;;23.53;;
16502;SDS011;53067;48.114;11.694;2022-12-15T09:34:39;33.80;;;21.93;;
16502;SDS011;53067;48.114;11.694;2022-12-15T09:37:07;34.40;;;21.40;;
16502;SDS011;53067;48.114;11.694;2022-12-15T09:39:34;34.80;;;22.43;;
16502;SDS011;53067;48.114;11.694;2022-12-15T09:42:03;38.07;;;22.57;;
16502;SDS011;53067;48.114;11.694;2022-12-15T09:44:31;34.80;;;23.60;;
16502;SDS011;53067;48.114;11.694;2022-12-15T09:47:04;38.27;;;23.70;;
16502;SDS011;53067;48.114;11.694;2022-12-15T09:52:16;34.40;;;22.83;;
16502;SDS011;53067;48.114;11.694;2022-12-15T09:54:45;40.73;;;23.70;;
16502;SDS011;53067;48.114;11.694;2022-12-15T09:57:18;33.13;;;21.73;;
16502;SDS011;53067;48.114;11.694;2022-12-15T10:02:58;36.33;;;23.47;;
16502;SDS011;53067;48.114;11.694;2022-12-15T10:08:16;36.13;;;23.17;;
16502;SDS011;53067;48.114;11.694;2022-12-15T10:13:51;37.30;;;23.13;;
16502;SDS011;53067;48.114;11.694;2022-12-15T10:16:34;35.60;;;22.60;;
16502;SDS011;53067;48.114;11.694;2022-12-15T10:19:07;38.93;;;22.77;;
16502;SDS011;53067;48.114;11.694;2022-12-15T10:21:36;33.47;;;22.30;;
16502;SDS011;53067;48.114;11.694;2022-12-15T10:24:27;33.37;;;21.63;;
16502;SDS011;53067;48.114;11.694;2022-12-15T10:26:47;43.97;;;24.97;;
16502;SDS011;53067;48.114;11.694;2022-12-15T10:29:22;41.20;;;23.70;;
16502;SDS011;53067;48.114;11.694;2022-12-15T10:32:13;36.57;;;23.20;;
16502;SDS011;53067;48.114;11.694;2022-12-15T10:34:47;38.67;;;24.30;;
16502;SDS011;53067;48.114;11.694;2022-12-15T10:37:18;38.80;;;23.43;;
16502;SDS011;53067;48.114;11.694;2022-12-15T10:39:47;39.70;;;24.43;;
16502;SDS011;53067;48.114;11.694;2022-12-15T10:42:17;38.30;;;24.80;;
16502;SDS011;53067;48.114;11.694;2022-12-15T10:44:52;38.20;;;24.07;;
16502;SDS011;53067;48.114;11.694;2022-12-15T10:47:21;37.83;;;24.30;;
16502;SDS011;53067;48.114;11.694;2022-12-15T10:49:52;40.93;;;23.47;;
16502;SDS011;53067;48.114;11.694;2022-12-15T10:52:25;40.43;;;24.00;;
16502;SDS011;53067;48.114;11.694;2022-12-15T10:54:52;39.80;;;24.37;;
16502;SDS011;53067;48.114;11.694;2022-12-15T10:57:22;36.87;;;23.10;;
16502;SDS011;53067;48.114;11.694;2022-12-15T10:59:54;35.17;;;23.43;;
16502;SDS011;53067;48.114;11.694;2022-12-15T11:02:25;37.00;;;23.53;;
16502;SDS011;53067;48.114;11.694;2022-12-15T11:04:59;40.57;;;23.40;;
16502;SDS011;53067;48.114;11.694;2022-12-15T11:07:36;34.87;;;23.57;;
16502;SDS011;53067;48.114;11.694;2022-12-15T11:10:17;33.90;;;23.53;;
16502;SDS011;53067;48.114;11.694;2022-12-15T11:12:42;36.03;;;23.27;;
16502;SDS011;53067;48.114;11.694;2022-12-15T11:18:20;37.10;;;23.77;;
16502;SDS011;53067;48.114;11.694;2022-12-15T11:21:01;35.37;;;23.13;;
16502;SDS011;53067;48.114;11.694;2022-12-15T11:23:40;41.30;;;23.80;;
16502;SDS011;53067;48.114;11.694;2022-12-15T11:26:33;33.97;;;23.43;;
16502;SDS011;53067;48.114;11.694;2022-12-15T11:29:22;35.17;;;21.70;;
16502;SDS011;53067;48.114;11.694;2022-12-15T11:31:52;39.40;;;24.17;;
16502;SDS011;53067;48.114;11.694;2022-12-15T11:34:21;38.37;;;23.97;;
16502;SDS011;53067;48.114;11.694;2022-12-15T11:45:24;37.07;;;24.07;;
16502;SDS011;53067;48.114;11.694;2022-12-15T11:48:16;35.27;;;21.93;;
16502;SDS011;53067;48.114;11.694;2022-12-15T11:50:57;39.80;;;23.20;;
16502;SDS011;53067;48.114;11.694;2022-12-15T11:53:49;38.70;;;23.97;;
16502;SDS011;53067;48.114;11.694;2022-12-15T12:01:59;40.77;;;24.03;;
16502;SDS011;53067;48.114;11.694;2022-12-15T12:04:40;37.87;;;23.77;;
16502;SDS011;53067;48.114;11.694;2022-12-15T12:07:15;37.13;;;23.83;;
16502;SDS011;53067;48.114;11.694;2022-12-15T12:12:36;36.30;;;24.10;;
16502;SDS011;53067;48.114;11.694;2022-12-15T12:15:14;40.43;;;25.33;;
16502;SDS011;53067;48.114;11.694;2022-12-15T12:17:53;41.37;;;24.07;;
16502;SDS011;53067;48.114;11.694;2022-12-15T12:20:24;39.17;;;23.83;;
16502;SDS011;53067;48.114;11.694;2022-12-15T12:23:00;37.43;;;24.57;;
16502;SDS011;53067;48.114;11.694;2022-12-15T12:25:30;39.33;;;25.77;;
16502;SDS011;53067;48.114;11.694;2022-12-15T12:28:12;39.73;;;24.83;;
16502;SDS011;53067;48.114;11.694;2022-12-15T12:30:37;43.47;;;26.33;;
16502;SDS011;53067;48.114;11.694;2022-12-15T12:33:14;39.43;;;25.43;;
16502;SDS011;53067;48.114;11.694;2022-12-15T12:36:27;38.87;;;25.17;;
16502;SDS011;53067;48.114;11.694;2022-12-15T12:38:20;37.43;;;24.00;;
16502;SDS011;53067;48.114;11.694;2022-12-15T12:41:10;38.20;;;24.30;;
16502;SDS011;53067;48.114;11.694;2022-12-15T12:43:46;38.23;;;24.43;;
16502;SDS011;53067;48.114;11.694;2022-12-15T12:49:06;39.30;;;23.87;;
16502;SDS011;53067;48.114;11.694;2022-12-15T12:51:52;41.00;;;24.10;;
16502;SDS011;53067;48.114;11.694;2022-12-15T12:59:43;39.80;;;23.87;;
16502;SDS011;53067;48.114;11.694;2022-12-15T13:04:50;38.83;;;23.73;;
16502;SDS011;53067;48.114;11.694;2022-12-15T13:07:29;35.90;;;24.07;;
16502;SDS011;53067;48.114;11.694;2022-12-15T13:12:57;38.90;;;25.03;;
16502;SDS011;53067;48.114;11.694;2022-12-15T13:15:37;40.90;;;25.00;;
16502;SDS011;53067;48.114;11.694;2022-12-15T13:18:14;36.97;;;23.60;;
16502;SDS011;53067;48.114;11.694;2022-12-15T13:20:45;36.80;;;23.77;;
16502;SDS011;53067;48.114;11.694;2022-12-15T13:46:54;40.20;;;24.73;;
16502;SDS011;53067;48.114;11.694;2022-12-15T13:49:26;40.90;;;24.40;;
16502;SDS011;53067;48.114;11.694;2022-12-15T13:52:13;39.70;;;25.43;;
16502;SDS011;53067;48.114;11.694;2022-12-15T13:54:56;35.50;;;23.43;;
16502;SDS011;53067;48.114;11.694;2022-12-15T13:57:28;40.37;;;24.30;;
16502;SDS011;53067;48.114;11.694;2022-12-15T14:00:06;40.33;;;24.43;;
16502;SDS011;53067;48.114;11.694;2022-12-15T14:02:50;42.80;;;24.73;;
16502;SDS011;53067;48.114;11.694;2022-12-15T14:05:31;34.57;;;22.57;;
16502;SDS011;53067;48.114;11.694;2022-12-15T14:07:59;35.33;;;23.10;;
16502;SDS011;53067;48.114;11.694;2022-12-15T14:13:10;37.57;;;23.00;;
16502;SDS011;53067;48.114;11.694;2022-12-15T14:15:55;37.83;;;23.73;;
16502;SDS011;53067;48.114;11.694;2022-12-15T14:18:34;37.50;;;22.90;;
16502;SDS011;53067;48.114;11.694;2022-12-15T14:21:06;36.20;;;23.63;;
16502;SDS011;53067;48.114;11.694;2022-12-15T14:23:48;37.63;;;23.50;;
16502;SDS011;53067;48.114;11.694;2022-12-15T14:26:15;35.77;;;22.83;;
16502;SDS011;53067;48.114;11.694;2022-12-15T14:28:44;32.87;;;22.50;;
16502;SDS011;53067;48.114;11.694;2022-12-15T14:31:14;32.67;;;22.40;;
16502;SDS011;53067;48.114;11.694;2022-12-15T14:33:44;35.43;;;23.50;;
16502;SDS011;53067;48.114;11.694;2022-12-15T14:36:14;32.67;;;21.00;;
16502;SDS011;53067;48.114;11.694;2022-12-15T14:38:44;41.33;;;24.43;;
16502;SDS011;53067;48.114;11.694;2022-12-15T14:41:18;35.87;;;22.83;;
16502;SDS011;53067;48.114;11.694;2022-12-15T14:43:47;33.33;;;22.70;;
16502;SDS011;53067;48.114;11.694;2022-12-15T14:46:18;34.10;;;23.30;;
16502;SDS011;53067;48.114;11.694;2022-12-15T14:48:52;32.17;;;21.60;;
16502;SDS011;53067;48.114;11.694;2022-12-15T14:51:27;34.10;;;22.60;;
16502;SDS011;53067;48.114;11.694;2022-12-15T14:53:57;33.03;;;22.00;;
16502;SDS011;53067;48.114;11.694;2022-12-15T14:56:26;34.10;;;21.53;;
16502;SDS011;53067;48.114;11.694;2022-12-15T14:58:59;37.13;;;22.87;;
16502;SDS011;53067;48.114;11.694;2022-12-15T15:01:38;34.17;;;22.80;;
16502;SDS011;53067;48.114;11.694;2022-12-15T15:04:30;33.73;;;20.97;;
16502;SDS011;53067;48.114;11.694;2022-12-15T15:06:51;40.30;;;23.00;;
16502;SDS011;53067;48.114;11.694;2022-12-15T15:09:25;38.13;;;22.33;;
16502;SDS011;53067;48.114;11.694;2022-12-15T15:11:55;36.10;;;22.73;;
16502;SDS011;53067;48.114;11.694;2022-12-15T15:14:39;37.57;;;23.10;;
16502;SDS011;53067;48.114;11.694;2022-12-15T15:17:00;38.40;;;23.43;;
16502;SDS011;53067;48.114;11.694;2022-12-15T15:19:29;33.73;;;20.90;;
16502;SDS011;53067;48.114;11.694;2022-12-15T15:21:59;35.53;;;22.63;;
16502;SDS011;53067;48.114;11.694;2022-12-15T15:24:33;38.43;;;23.03;;
16502;SDS011;53067;48.114;11.694;2022-12-15T15:27:23;35.27;;;22.60;;
16502;SDS011;53067;48.114;11.694;2022-12-15T15:30:04;37.77;;;23.80;;
16502;SDS011;53067;48.114;11.694;2022-12-15T15:32:52;40.53;;;24.00;;
16502;SDS011;53067;48.114;11.694;2022-12-15T15:35:22;40.37;;;23.53;;
16502;SDS011;53067;48.114;11.694;2022-12-15T15:37:52;40.93;;;24.23;;
16502;SDS011;53067;48.114;11.694;2022-12-15T15:40:21;41.40;;;25.37;;
16502;SDS011;53067;48.114;11.694;2022-12-15T15:42:49;37.27;;;24.13;;
16502;SDS011;53067;48.114;11.694;2022-12-15T15:45:16;38.93;;;23.37;;
16502;SDS011;53067;48.114;11.694;2022-12-15T15:47:45;37.70;;;24.50;;
16502;SDS011;53067;48.114;11.694;2022-12-15T15:50:15;39.67;;;24.03;;
16502;SDS011;53067;48.114;11.694;2022-12-15T15:52:45;36.63;;;23.43;;
16502;SDS011;53067;48.114;11.694;2022-12-15T15:55:13;39.10;;;24.37;;
16502;SDS011;53067;48.114;11.694;2022-12-15T15:57:42;40.07;;;24.47;;
16502;SDS011;53067;48.114;11.694;2022-12-15T16:00:13;40.77;;;23.90;;
16502;SDS011;53067;48.114;11.694;2022-12-15T16:02:46;35.87;;;22.63;;
16502;SDS011;53067;48.114;11.694;2022-12-15T16:05:14;35.50;;;24.00;;
16502;SDS011;53067;48.114;11.694;2022-12-15T16:07:42;41.50;;;25.73;;
16502;SDS011;53067;48.114;11.694;2022-12-15T16:10:17;40.20;;;24.63;;
16502;SDS011;53067;48.114;11.694;2022-12-15T16:12:43;41.17;;;25.70;;
16502;SDS011;53067;48.114;11.694;2022-12-15T16:15:21;43.93;;;26.70;;